Time;durP1;ratioP1;P1;durP2;ratioP2;P2;SDS_P1;SDS_P2;PMS_P1;PMS_P2;Temp;Humidity;BMP_temperature;BMP_pressure;BME280_temperature;BME280_humidity;BME280_pressure;Samples;Min_cycle;Max_cycle;Signal;HPM_P1;HPM_P2
2023/12/03 00:02:36;;;;;;;1.50;1.17;;;19.20;46.60;;;;;;8365518;28;20056;-49
2023/12/03 00:06:38;;;;;;;1.02;0.95;;;19.20;46.60;;;;;;8365542;28;20382;-49
2023/12/03 00:10:39;;;;;;;1.20;1.00;;;19.20;46.40;;;;;;8365603;28;20044;-50
2023/12/03 00:14:40;;;;;;;1.38;1.17;;;19.10;46.60;;;;;;8365401;28;20057;-51
2023/12/03 00:18:41;;;;;;;1.00;0.90;;;19.10;46.70;;;;;;8365673;28;20029;-51
2023/12/03 00:22:42;;;;;;;1.00;0.90;;;19.20;46.60;;;;;;8365282;28;20112;-48
2023/12/03 00:26:43;;;;;;;0.90;0.90;;;19.20;46.60;;;;;;8364794;28;20017;-49
2023/12/03 00:30:44;;;;;;;1.00;0.88;;;19.20;46.60;;;;;;8364917;28;20036;-49
2023/12/03 00:34:45;;;;;;;0.82;0.82;;;19.20;46.50;;;;;;8364707;28;20025;-54
2023/12/03 00:38:46;;;;;;;1.15;1.05;;;19.20;46.50;;;;;;8364596;28;20040;-51
2023/12/03 00:42:49;;;;;;;1.10;1.00;;;19.20;46.50;;;;;;8364589;28;20109;-55
2023/12/03 00:46:50;;;;;;;1.13;1.02;;;19.20;46.50;;;;;;8364223;28;20033;-54
2023/12/03 00:50:51;;;;;;;1.00;0.90;;;19.20;46.50;;;;;;8364327;28;20032;-52
2023/12/03 00:54:52;;;;;;;;;;;19.20;46.50;;;;;;8363778;28;20056;-54
2023/12/03 00:58:53;;;;;;;1.17;1.07;;;19.20;46.50;;;;;;8364159;28;19913;-53
2023/12/03 01:02:54;;;;;;;1.20;1.10;;;19.10;46.50;;;;;;8363526;28;20537;-54
2023/12/03 01:06:56;;;;;;;0.88;0.88;;;19.10;46.50;;;;;;8363726;28;20285;-54
2023/12/03 01:10:58;;;;;;;1.00;0.90;;;19.10;46.40;;;;;;8363529;28;20049;-55
2023/12/03 01:14:59;;;;;;;1.02;0.98;;;19.10;46.60;;;;;;8363837;28;20035;-55
2023/12/03 01:19:01;;;;;;;1.52;1.10;;;19.10;46.60;;;;;;8363473;28;20037;-55
2023/12/03 01:23:02;;;;;;;1.23;1.10;;;19.10;46.50;;;;;;8363064;28;20032;-54
2023/12/03 01:27:04;;;;;;;;;;;19.10;46.50;;;;;;8363551;28;20021;-54
2023/12/03 01:31:05;;;;;;;1.27;0.90;;;19.10;46.50;;;;;;8362925;28;20401;-54
2023/12/03 01:35:07;;;;;;;1.05;0.90;;;19.10;46.40;;;;;;8362742;28;20766;-54
2023/12/03 01:39:09;;;;;;;1.20;1.10;;;19.10;46.30;;;;;;8361313;28;20112;-53
2023/12/03 01:43:10;;;;;;;0.88;0.80;;;19.10;46.40;;;;;;8362674;28;20033;-54
2023/12/03 01:47:14;;;;;;;0.88;0.82;;;19.20;46.40;;;;;;8362770;28;20029;-54
2023/12/03 01:51:15;;;;;;;1.23;0.77;;;19.10;46.30;;;;;;8362464;28;20039;-52
2023/12/03 01:55:20;;;;;;;1.15;1.05;;;19.10;46.30;;;;;;8362487;28;20036;-53
2023/12/03 01:59:23;;;;;;;1.00;0.90;;;19.10;46.30;;;;;;8362450;28;20040;-51
2023/12/03 02:03:24;;;;;;;0.95;0.90;;;19.20;46.30;;;;;;8362227;28;20044;-53
2023/12/03 02:07:25;;;;;;;1.17;1.08;;;19.20;46.30;;;;;;8361419;28;20029;-53
2023/12/03 02:11:26;;;;;;;1.05;0.95;;;19.10;46.30;;;;;;8360453;28;20044;-52
2023/12/03 02:15:27;;;;;;;1.15;0.90;;;19.10;46.50;;;;;;8361719;28;20113;-52
2023/12/03 02:19:28;;;;;;;0.88;0.82;;;19.10;46.50;;;;;;8361409;28;20087;-53
2023/12/03 02:23:30;;;;;;;1.13;0.80;;;19.10;46.40;;;;;;8361206;28;20075;-53
2023/12/03 02:27:32;;;;;;;1.20;1.10;;;19.10;46.40;;;;;;8361031;28;20132;-53
2023/12/03 02:31:33;;;;;;;1.08;1.00;;;19.10;46.40;;;;;;8360791;28;20048;-53
2023/12/03 02:35:34;;;;;;;1.02;0.93;;;19.10;46.30;;;;;;8360873;28;20044;-52
2023/12/03 02:39:35;;;;;;;1.00;0.90;;;19.10;46.20;;;;;;8360819;28;20045;-53
2023/12/03 02:43:35;;;;;;;0.90;0.90;;;19.10;46.30;;;;;;8360560;28;20056;-53
2023/12/03 02:47:36;;;;;;;1.00;0.90;;;19.10;46.20;;;;;;8360394;28;20044;-52
2023/12/03 02:51:37;;;;;;;0.85;0.85;;;19.10;46.20;;;;;;8360604;28;20667;-53
2023/12/03 02:55:37;;;;;;;1.10;1.00;;;19.10;46.20;;;;;;8360276;28;20119;-54
2023/12/03 02:59:38;;;;;;;0.88;0.80;;;19.10;46.20;;;;;;8359820;28;20112;-54
2023/12/03 03:03:39;;;;;;;0.77;0.77;;;19.10;46.10;;;;;;8360077;28;20052;-53
2023/12/03 03:07:39;;;;;;;0.82;0.82;;;19.10;46.20;;;;;;8360042;28;20450;-55
2023/12/03 03:11:40;;;;;;;0.88;0.88;;;19.10;46.10;;;;;;8360076;28;20055;-55
2023/12/03 03:15:41;;;;;;;1.02;0.93;;;19.00;46.30;;;;;;8360002;28;20035;-55
2023/12/03 03:19:44;;;;;;;0.93;0.90;;;19.00;46.30;;;;;;8359218;28;20443;-55
2023/12/03 03:23:45;;;;;;;1.00;0.80;;;19.00;46.30;;;;;;8359720;28;20047;-54
2023/12/03 03:27:45;;;;;;;0.88;0.88;;;19.00;46.30;;;;;;8359986;28;20025;-54
2023/12/03 03:31:46;;;;;;;1.08;0.90;;;19.10;46.20;;;;;;8359566;28;20033;-55
2023/12/03 03:35:47;;;;;;;0.80;0.80;;;19.10;46.20;;;;;;8359559;28;20059;-53
2023/12/03 03:39:47;;;;;;;1.20;1.10;;;19.00;46.10;;;;;;8359400;28;20485;-54
2023/12/03 03:43:49;;;;;;;1.10;0.93;;;19.10;46.10;;;;;;8359339;28;20647;-52
2023/12/03 03:47:50;;;;;;;1.38;0.95;;;19.00;46.10;;;;;;8359364;28;20376;-53
2023/12/03 03:51:50;;;;;;;;;;;19.10;46.10;;;;;;8359812;28;20033;-54
2023/12/03 03:55:51;;;;;;;0.93;0.87;;;19.10;46.10;;;;;;8358993;28;20011;-53
2023/12/03 03:59:52;;;;;;;0.68;0.68;;;19.10;46.10;;;;;;8359569;28;20536;-55
2023/12/03 04:03:52;;;;;;;0.80;0.75;;;19.10;46.10;;;;;;8359140;28;20045;-55
2023/12/03 04:07:53;;;;;;;0.80;0.80;;;19.10;46.10;;;;;;8359105;28;20029;-51
2023/12/03 04:11:54;;;;;;;1.00;0.90;;;19.10;46.00;;;;;;8357872;28;20034;-49
2023/12/03 04:15:54;;;;;;;0.98;0.90;;;19.00;46.20;;;;;;8359156;28;20029;-52
2023/12/03 04:19:55;;;;;;;0.73;0.70;;;19.00;46.20;;;;;;8358884;28;20040;-50
2023/12/03 04:23:57;;;;;;;0.93;0.88;;;19.10;46.10;;;;;;8358997;28;20115;-49
2023/12/03 04:27:57;;;;;;;0.85;0.85;;;19.00;46.10;;;;;;8358499;28;20021;-52
2023/12/03 04:31:58;;;;;;;1.00;0.88;;;19.00;46.10;;;;;;8363489;28;20036;-51
2023/12/03 04:35:59;;;;;;;0.77;0.77;;;19.00;46.10;;;;;;8364807;28;20394;-52
2023/12/03 04:39:59;;;;;;;0.60;0.60;;;19.00;46.10;;;;;;8364703;28;20036;-51
2023/12/03 04:44:00;;;;;;;1.08;0.90;;;19.00;46.10;;;;;;8364566;28;20059;-52
2023/12/03 04:48:01;;;;;;;0.90;0.88;;;19.00;46.10;;;;;;8364463;28;20120;-50
2023/12/03 04:52:02;;;;;;;0.80;0.80;;;19.00;46.00;;;;;;8364394;28;20025;-50
2023/12/03 04:56:03;;;;;;;0.88;0.70;;;19.00;46.00;;;;;;8364020;28;20033;-52
2023/12/03 05:00:04;;;;;;;1.05;0.90;;;19.00;46.00;;;;;;8362594;28;20069;-49
2023/12/03 05:04:04;;;;;;;;;;;19.00;46.00;;;;;;8364760;28;20053;-51
2023/12/03 05:08:05;;;;;;;0.73;0.73;;;19.10;46.00;;;;;;8364244;28;19919;-51
2023/12/03 05:12:06;;;;;;;0.70;0.70;;;19.10;45.80;;;;;;8363603;28;20111;-51
2023/12/03 05:16:08;;;;;;;0.60;0.60;;;19.00;46.00;;;;;;8363754;28;20044;-48
2023/12/03 05:20:09;;;;;;;;;;;19.00;46.00;;;;;;8362527;28;20044;-49
2023/12/03 05:24:10;;;;;;;;;;;19.10;45.80;;;;;;8363733;28;20362;-50
2023/12/03 05:28:11;;;;;;;0.80;0.80;;;19.10;45.90;;;;;;8363102;28;20396;-49
2023/12/03 05:32:11;;;;;;;0.75;0.75;;;19.10;45.80;;;;;;8363182;28;20044;-48
2023/12/03 05:36:23;;;;;;;1.50;0.85;;;19.10;45.80;;;;;;8363028;28;20045;-52
2023/12/03 05:40:23;;;;;;;0.88;0.80;;;19.10;45.80;;;;;;8362685;28;20029;-49
2023/12/03 05:44:24;;;;;;;0.85;0.80;;;19.10;45.70;;;;;;8362805;28;20029;-50
2023/12/03 05:48:25;;;;;;;1.00;0.70;;;19.10;45.70;;;;;;8362673;28;20510;-51
2023/12/03 05:52:25;;;;;;;1.17;1.08;;;19.10;45.70;;;;;;8362340;28;20048;-50
2023/12/03 05:56:26;;;;;;;1.00;1.00;;;19.10;45.70;;;;;;8362099;28;20498;-50
2023/12/03 06:00:27;;;;;;;0.82;0.80;;;19.10;45.60;;;;;;8362217;28;20470;-50
2023/12/03 06:04:27;;;;;;;1.20;1.08;;;19.20;45.50;;;;;;8361812;28;20049;-50
2023/12/03 06:08:28;;;;;;;0.60;0.60;;;19.20;45.40;;;;;;8361898;28;20041;-50
2023/12/03 06:12:29;;;;;;;0.88;0.80;;;19.20;45.50;;;;;;8361816;28;20398;-48
2023/12/03 06:16:30;;;;;;;0.70;0.70;;;19.10;45.60;;;;;;8361406;28;20037;-48
2023/12/03 06:20:30;;;;;;;1.00;0.80;;;19.20;45.60;;;;;;8361393;28;20029;-51
2023/12/03 06:24:31;;;;;;;0.60;0.60;;;19.20;46.00;;;;;;8361492;28;20044;-49
2023/12/03 06:28:32;;;;;;;0.80;0.80;;;19.20;45.50;;;;;;8361224;28;20451;-50
2023/12/03 06:32:32;;;;;;;0.70;0.70;;;19.20;45.40;;;;;;8361376;28;20090;-52
2023/12/03 06:36:33;;;;;;;0.88;0.70;;;19.30;45.40;;;;;;8360958;28;20404;-52
2023/12/03 06:40:34;;;;;;;0.88;0.88;;;19.30;45.30;;;;;;8360663;28;20032;-53
2023/12/03 06:44:34;;;;;;;0.65;0.65;;;19.30;45.40;;;;;;8360850;28;20029;-51
2023/12/03 06:48:35;;;;;;;0.70;0.70;;;19.30;45.40;;;;;;8360812;28;20036;-51
2023/12/03 06:52:36;;;;;;;0.70;0.70;;;19.30;45.40;;;;;;8360119;28;20029;-52
2023/12/03 06:56:37;;;;;;;;;;;19.30;45.40;;;;;;8360675;28;20095;-52
2023/12/03 07:00:38;;;;;;;0.73;0.73;;;19.30;45.30;;;;;;8360515;28;19919;-51
2023/12/03 07:04:38;;;;;;;0.88;0.70;;;19.30;45.30;;;;;;8360225;28;20384;-51
2023/12/03 07:08:39;;;;;;;0.90;0.90;;;19.30;45.30;;;;;;8360161;28;20029;-52
2023/12/03 07:12:40;;;;;;;1.25;0.90;;;19.30;45.30;;;;;;8360158;28;20031;-51
2023/12/03 07:16:40;;;;;;;0.70;0.70;;;19.20;45.40;;;;;;8360068;28;20029;-50
2023/12/03 07:20:41;;;;;;;0.85;0.85;;;19.30;45.40;;;;;;8358635;28;20040;-50
2023/12/03 07:24:42;;;;;;;0.90;0.80;;;19.30;45.40;;;;;;8360197;28;20087;-50
2023/12/03 07:28:43;;;;;;;0.95;0.80;;;19.30;45.30;;;;;;8359713;28;20383;-51
2023/12/03 07:32:44;;;;;;;0.80;0.80;;;19.30;45.30;;;;;;8359850;28;20063;-51
2023/12/03 07:36:44;;;;;;;0.73;0.73;;;19.30;45.30;;;;;;8359803;28;20033;-53
2023/12/03 07:40:45;;;;;;;0.77;0.77;;;19.30;45.30;;;;;;8359555;28;20045;-52
2023/12/03 07:44:46;;;;;;;1.08;0.98;;;19.30;45.30;;;;;;8359634;28;20021;-52
2023/12/03 07:48:47;;;;;;;1.02;0.75;;;19.30;45.20;;;;;;8359622;28;20037;-52
2023/12/03 07:52:47;;;;;;;0.75;0.70;;;19.30;45.20;;;;;;8359504;28;20098;-53
2023/12/03 07:56:48;;;;;;;0.60;0.60;;;19.30;45.20;;;;;;8359379;28;20029;-53
2023/12/03 08:00:49;;;;;;;0.93;0.90;;;19.30;45.20;;;;;;8357954;28;20037;-52
2023/12/03 08:04:49;;;;;;;0.80;0.80;;;19.30;45.20;;;;;;8361119;28;20046;-53
2023/12/03 08:08:52;;;;;;;0.82;0.70;;;19.30;45.20;;;;;;8365599;28;20391;-52
2023/12/03 08:12:53;;;;;;;0.73;0.73;;;19.30;45.20;;;;;;8365472;28;20025;-54
2023/12/03 08:16:53;;;;;;;0.82;0.80;;;19.20;45.30;;;;;;8365343;28;20033;-53
2023/12/03 08:20:54;;;;;;;0.77;0.77;;;19.30;45.30;;;;;;8365108;28;20762;-54
2023/12/03 08:24:55;;;;;;;1.23;1.00;;;19.30;45.30;;;;;;8365286;28;20029;-52
2023/12/03 08:28:55;;;;;;;1.05;0.70;;;19.30;45.20;;;;;;8364936;28;20041;-53
2023/12/03 08:32:56;;;;;;;0.90;0.90;;;19.30;45.20;;;;;;8364710;28;20083;-54
2023/12/03 08:36:57;;;;;;;0.90;0.80;;;19.30;45.20;;;;;;8364603;28;20025;-52
2023/12/03 08:40:57;;;;;;;1.20;0.90;;;19.30;45.10;;;;;;8364372;28;20398;-53
2023/12/03 08:44:58;;;;;;;0.88;0.88;;;19.30;45.10;;;;;;8364557;28;20024;-53
2023/12/03 08:48:59;;;;;;;0.68;0.63;;;19.30;45.10;;;;;;8364293;28;20037;-49
2023/12/03 08:52:59;;;;;;;0.70;0.70;;;19.30;45.10;;;;;;8364125;28;20036;-52
2023/12/03 08:57:01;;;;;;;1.00;0.90;;;19.30;45.10;;;;;;8364023;28;20075;-49
2023/12/03 09:01:01;;;;;;;0.95;0.85;;;19.30;45.10;;;;;;8363731;28;20025;-50
2023/12/03 09:05:03;;;;;;;0.70;0.70;;;19.40;45.10;;;;;;8363636;28;20057;-48
2023/12/03 09:09:04;;;;;;;0.70;0.70;;;19.30;45.10;;;;;;8363615;28;20032;-51
2023/12/03 09:13:05;;;;;;;1.05;0.77;;;19.30;45.10;;;;;;8363981;28;20041;-50
2023/12/03 09:17:06;;;;;;;0.88;0.65;;;19.30;45.30;;;;;;8362358;28;20585;-51
2023/12/03 09:21:08;;;;;;;;;;;19.30;45.30;;;;;;8364136;28;20025;-51
2023/12/03 09:25:08;;;;;;;0.70;0.70;;;19.30;45.30;;;;;;8363447;28;19996;-48
2023/12/03 09:29:11;;;;;;;0.93;0.88;;;19.30;45.30;;;;;;8362999;28;20037;-50
2023/12/03 09:33:12;;;;;;;0.80;0.70;;;19.30;45.20;;;;;;8361575;28;20063;-52
2023/12/03 09:37:13;;;;;;;0.85;0.85;;;19.30;45.20;;;;;;8362651;28;20037;-50
2023/12/03 09:41:16;;;;;;;1.10;1.00;;;19.30;45.10;;;;;;8362558;28;20036;-50
2023/12/03 09:45:19;;;;;;;1.00;0.90;;;19.30;45.10;;;;;;8362563;28;20029;-49
2023/12/03 09:49:23;;;;;;;1.00;0.90;;;19.30;45.10;;;;;;8362517;28;20554;-52
2023/12/03 09:53:26;;;;;;;1.33;0.90;;;19.30;45.10;;;;;;8362297;28;20090;-50
2023/12/03 09:57:29;;;;;;;0.85;0.75;;;19.30;45.10;;;;;;8362018;28;20448;-50
2023/12/03 10:01:30;;;;;;;0.70;0.70;;;19.30;45.00;;;;;;8362373;28;20035;-50
2023/12/03 10:05:32;;;;;;;0.90;0.70;;;19.30;45.10;;;;;;8361832;28;20041;-52
2023/12/03 10:09:33;;;;;;;0.60;0.60;;;19.30;45.10;;;;;;8361702;28;20114;-51
2023/12/03 10:13:36;;;;;;;1.02;1.00;;;19.30;45.20;;;;;;8362099;28;20061;-50
2023/12/03 10:17:39;;;;;;;0.75;0.70;;;19.20;45.40;;;;;;8361412;28;20518;-53
2023/12/03 10:21:48;;;;;;;0.75;0.75;;;19.20;45.40;;;;;;8361382;28;20045;-51
2023/12/03 10:25:49;;;;;;;0.80;0.73;;;19.20;45.30;;;;;;8361789;28;20035;-49
2023/12/03 10:29:49;;;;;;;1.10;1.00;;;19.20;45.40;;;;;;8359832;28;20482;-52
2023/12/03 10:33:51;;;;;;;0.85;0.70;;;19.20;45.30;;;;;;8361020;28;20581;-51
2023/12/03 10:37:52;;;;;;;0.88;0.80;;;19.20;45.30;;;;;;8360969;28;20047;-49
2023/12/03 10:41:54;;;;;;;1.27;1.00;;;19.20;45.30;;;;;;8360744;28;20029;-49
2023/12/03 10:45:55;;;;;;;0.80;0.73;;;19.30;45.20;;;;;;8361331;28;20029;-50
2023/12/03 10:49:56;;;;;;;1.20;1.08;;;19.30;45.20;;;;;;8361793;28;20052;-51
2023/12/03 10:53:57;;;;;;;1.23;0.73;;;19.30;45.20;;;;;;8360469;28;20040;-52
2023/12/03 10:58:03;;;;;;;1.10;1.00;;;19.30;45.20;;;;;;8359242;28;20083;-51
2023/12/03 11:02:07;;;;;;;1.00;0.80;;;19.30;45.20;;;;;;8360635;28;20040;-50
2023/12/03 11:06:12;;;;;;;0.90;0.90;;;19.30;45.20;;;;;;8360819;28;20057;-52
2023/12/03 11:10:13;;;;;;;1.10;0.82;;;19.30;45.10;;;;;;8360339;28;20033;-50
2023/12/03 11:14:15;;;;;;;0.70;0.70;;;19.30;45.30;;;;;;8360125;28;20033;-49
2023/12/03 11:18:17;;;;;;;0.80;0.80;;;19.20;45.30;;;;;;8360148;28;20581;-50
2023/12/03 11:22:38;;;;;;;1.00;0.90;;;19.30;45.30;;;;;;8359802;28;20107;-50
2023/12/03 11:26:42;;;;;;;0.82;0.80;;;19.30;45.30;;;;;;8359729;28;20048;-52
2023/12/03 11:30:43;;;;;;;0.70;0.70;;;19.30;45.30;;;;;;8360203;28;20033;-50
2023/12/03 11:34:49;;;;;;;1.75;1.27;;;19.30;45.30;;;;;;8359814;28;20474;-51
2023/12/03 11:38:50;;;;;;;0.93;0.80;;;19.30;45.30;;;;;;8359382;28;20505;-50
2023/12/03 11:42:50;;;;;;;1.08;0.98;;;19.30;45.30;;;;;;8366834;28;20479;-49
2023/12/03 11:47:07;;;;;;;0.80;0.73;;;19.30;45.30;;;;;;8366106;28;20060;-52
2023/12/03 11:51:09;;;;;;;0.70;0.70;;;19.30;45.20;;;;;;8366237;28;20033;-50
2023/12/03 11:55:18;;;;;;;1.40;0.90;;;19.30;45.20;;;;;;8366391;28;20048;-50
2023/12/03 11:59:19;;;;;;;1.35;0.90;;;19.30;45.20;;;;;;8366049;28;20064;-51
2023/12/03 12:03:19;;;;;;;1.02;0.98;;;19.20;45.20;;;;;;8365790;28;20075;-52
2023/12/03 12:07:20;;;;;;;1.25;1.02;;;19.20;45.20;;;;;;8365725;28;20478;-51
2023/12/03 12:11:21;;;;;;;1.33;1.23;;;19.20;45.20;;;;;;8365583;28;20045;-51
2023/12/03 12:15:22;;;;;;;1.45;1.20;;;19.10;45.40;;;;;;8366006;28;20037;-51
2023/12/03 12:19:23;;;;;;;0.98;0.90;;;19.20;45.50;;;;;;8365425;28;20029;-52
2023/12/03 12:23:24;;;;;;;0.95;0.80;;;19.20;45.40;;;;;;8365027;28;20067;-54
2023/12/03 12:27:26;;;;;;;1.00;0.93;;;19.20;45.40;;;;;;8364862;28;20523;-53
2023/12/03 12:31:27;;;;;;;0.93;0.77;;;19.20;45.30;;;;;;8365049;28;20056;-53
2023/12/03 12:35:28;;;;;;;1.13;0.90;;;19.20;45.30;;;;;;8364750;28;20037;-54
2023/12/03 12:39:29;;;;;;;1.25;0.80;;;19.30;45.30;;;;;;8364387;28;20505;-53
2023/12/03 12:43:29;;;;;;;1.33;1.08;;;19.30;45.40;;;;;;8364652;28;20033;-51
2023/12/03 12:47:37;;;;;;;1.05;0.80;;;19.30;45.30;;;;;;8364642;28;20037;-52
2023/12/03 12:51:38;;;;;;;0.70;0.70;;;19.30;45.30;;;;;;8363030;28;20025;-54
2023/12/03 12:55:39;;;;;;;0.90;0.90;;;19.30;45.30;;;;;;8364103;28;20502;-51
2023/12/03 12:59:40;;;;;;;0.75;0.75;;;19.30;45.30;;;;;;8364360;28;20044;-53
2023/12/03 13:03:41;;;;;;;1.00;0.90;;;19.30;45.30;;;;;;8363548;28;20087;-53
2023/12/03 13:07:42;;;;;;;0.75;0.75;;;19.30;45.30;;;;;;8363778;28;20029;-52
2023/12/03 13:11:42;;;;;;;0.90;0.90;;;19.30;45.30;;;;;;8363948;28;20057;-54
2023/12/03 13:15:43;;;;;;;0.95;0.90;;;19.20;45.40;;;;;;8363490;28;20037;-52
2023/12/03 13:19:44;;;;;;;1.08;0.98;;;19.20;45.40;;;;;;8363447;28;20033;-53
2023/12/03 13:23:44;;;;;;;1.05;0.93;;;19.20;45.40;;;;;;8364054;28;20036;-53
2023/12/03 13:27:45;;;;;;;0.80;0.80;;;19.20;45.30;;;;;;8363069;28;20402;-52
2023/12/03 13:31:46;;;;;;;0.80;0.80;;;19.20;45.30;;;;;;8362974;28;20072;-53
2023/12/03 13:35:47;;;;;;;1.02;0.95;;;19.20;45.30;;;;;;8363015;28;20043;-52
2023/12/03 13:39:48;;;;;;;0.80;0.80;;;19.20;45.40;;;;;;8362741;28;20505;-53
2023/12/03 13:43:48;;;;;;;;;;;19.20;45.40;;;;;;8362998;28;20395;-50
2023/12/03 13:47:49;;;;;;;0.87;0.70;;;19.20;45.40;;;;;;8362487;28;19932;-53
2023/12/03 13:51:50;;;;;;;1.45;1.08;;;19.20;45.40;;;;;;8362236;28;20033;-54
2023/12/03 13:55:51;;;;;;;1.30;0.95;;;19.20;45.50;;;;;;8362415;28;20072;-53
2023/12/03 13:59:51;;;;;;;1.50;0.80;;;19.20;45.50;;;;;;8362107;28;20048;-53
2023/12/03 14:03:52;;;;;;;0.82;0.82;;;19.20;45.40;;;;;;8362044;28;20041;-52
2023/12/03 14:07:53;;;;;;;1.08;1.00;;;19.20;45.40;;;;;;8362316;28;20025;-53
2023/12/03 14:11:53;;;;;;;0.88;0.80;;;19.20;45.30;;;;;;8361805;28;20402;-53
2023/12/03 14:15:56;;;;;;;0.93;0.80;;;19.20;46.00;;;;;;8361777;28;20059;-53
2023/12/03 14:19:56;;;;;;;0.80;0.80;;;19.20;45.40;;;;;;8361595;28;20072;-53
2023/12/03 14:23:57;;;;;;;0.82;0.80;;;19.20;45.40;;;;;;8361454;28;20037;-53
2023/12/03 14:27:58;;;;;;;0.90;0.90;;;19.30;45.90;;;;;;8361162;28;20592;-51
2023/12/03 14:31:58;;;;;;;0.73;0.70;;;19.30;45.30;;;;;;8361055;28;20032;-53
2023/12/03 14:35:59;;;;;;;0.70;0.70;;;19.30;45.30;;;;;;8360921;28;20025;-53
2023/12/03 14:40:00;;;;;;;0.95;0.73;;;19.30;45.30;;;;;;8361038;28;20029;-53
2023/12/03 14:44:00;;;;;;;0.70;0.70;;;19.30;45.30;;;;;;8360602;28;20029;-53
2023/12/03 14:48:01;;;;;;;0.73;0.70;;;19.30;45.30;;;;;;8360700;28;20025;-54
2023/12/03 14:52:02;;;;;;;0.98;0.80;;;19.30;45.30;;;;;;8360683;28;20045;-54
2023/12/03 14:56:03;;;;;;;0.75;0.63;;;19.30;45.30;;;;;;8360258;28;20039;-53
2023/12/03 15:00:05;;;;;;;1.25;1.00;;;19.20;45.20;;;;;;8360414;28;20041;-54
2023/12/03 15:04:06;;;;;;;0.88;0.80;;;19.30;45.30;;;;;;8360238;28;20049;-53
2023/12/03 15:08:07;;;;;;;0.80;0.80;;;19.30;45.30;;;;;;8360125;28;20533;-53
2023/12/03 15:12:08;;;;;;;0.95;0.93;;;19.20;45.30;;;;;;8360125;28;20514;-53
2023/12/03 15:16:12;;;;;;;0.70;0.70;;;19.20;45.40;;;;;;8359434;28;20086;-53
2023/12/03 15:20:13;;;;;;;0.80;0.80;;;19.20;45.30;;;;;;8359868;28;20033;-53
2023/12/03 15:24:14;;;;;;;0.90;0.90;;;19.20;45.30;;;;;;8359721;28;20040;-53
2023/12/03 15:28:15;;;;;;;;;;;19.30;45.30;;;;;;8360649;28;20033;-52
2023/12/03 15:32:16;;;;;;;1.07;1.00;;;19.30;45.30;;;;;;8359650;28;19917;-53
2023/12/03 15:36:16;;;;;;;0.90;0.70;;;19.30;45.30;;;;;;8359366;28;20531;-52
2023/12/03 15:40:17;;;;;;;1.00;0.93;;;19.30;45.30;;;;;;8359658;28;20491;-51
2023/12/03 15:44:18;;;;;;;0.80;0.80;;;19.30;45.20;;;;;;8358283;28;20037;-52
2023/12/03 15:48:19;;;;;;;0.90;0.90;;;19.30;45.20;;;;;;8359421;28;20554;-53
2023/12/03 15:52:19;;;;;;;1.02;0.90;;;19.30;45.20;;;;;;8359387;28;20029;-54
2023/12/03 15:56:20;;;;;;;1.13;0.80;;;19.30;45.20;;;;;;8359305;28;20044;-53
2023/12/03 16:00:21;;;;;;;1.00;0.98;;;19.30;45.20;;;;;;8359796;28;20033;-53
2023/12/03 16:04:22;;;;;;;1.55;1.08;;;19.30;45.20;;;;;;8359327;28;20478;-55
2023/12/03 16:08:22;;;;;;;1.20;1.10;;;19.30;45.20;;;;;;8359164;28;20445;-54
2023/12/03 16:12:23;;;;;;;1.23;0.80;;;19.20;45.20;;;;;;8359196;28;20052;-55
2023/12/03 16:16:24;;;;;;;1.30;1.00;;;19.10;45.40;;;;;;8359199;28;20033;-56
2023/12/03 16:20:24;;;;;;;1.48;1.10;;;19.10;45.40;;;;;;8358819;28;20394;-53
2023/12/03 16:24:25;;;;;;;0.98;0.88;;;19.20;45.40;;;;;;8360171;28;20072;-54
2023/12/03 16:28:26;;;;;;;0.82;0.82;;;19.10;45.30;;;;;;8364516;28;20025;-54
2023/12/03 16:32:26;;;;;;;1.08;1.02;;;19.20;45.30;;;;;;8364922;28;20041;-54
2023/12/03 16:36:27;;;;;;;1.10;1.00;;;19.20;45.30;;;;;;8365200;28;20470;-55
2023/12/03 16:40:31;;;;;;;1.10;1.00;;;19.20;45.30;;;;;;8364576;28;20041;-54
2023/12/03 16:44:32;;;;;;;0.77;0.77;;;19.20;45.30;;;;;;8364706;28;20071;-53
2023/12/03 16:48:33;;;;;;;0.80;0.80;;;19.20;45.20;;;;;;8364691;28;20064;-55
2023/12/03 16:52:33;;;;;;;1.13;1.02;;;19.20;45.20;;;;;;8364339;28;20037;-54
2023/12/03 16:56:35;;;;;;;1.00;0.77;;;19.20;45.20;;;;;;8364072;28;20033;-55
2023/12/03 17:00:36;;;;;;;0.80;0.80;;;19.20;45.20;;;;;;8364201;28;20035;-54
2023/12/03 17:04:37;;;;;;;1.08;0.88;;;19.20;45.10;;;;;;8362678;28;20049;-53
2023/12/03 17:08:38;;;;;;;0.90;0.90;;;19.20;45.10;;;;;;8362730;28;20040;-53
2023/12/03 17:12:39;;;;;;;1.60;1.13;;;19.20;45.10;;;;;;8363844;28;20044;-53
2023/12/03 17:16:39;;;;;;;1.23;0.98;;;19.20;45.30;;;;;;8363552;28;20095;-53
2023/12/03 17:20:41;;;;;;;0.90;0.80;;;19.20;45.30;;;;;;8363484;28;20372;-53
2023/12/03 17:24:42;;;;;;;1.25;0.90;;;19.20;45.30;;;;;;8363441;28;20482;-53
2023/12/03 17:28:43;;;;;;;1.20;0.90;;;19.20;45.30;;;;;;8363053;28;20060;-53
2023/12/03 17:32:44;;;;;;;1.52;1.00;;;19.20;45.20;;;;;;8363181;28;20509;-54
2023/12/03 17:36:45;;;;;;;1.50;0.90;;;19.20;45.20;;;;;;8362316;28;20030;-53
2023/12/03 17:40:47;;;;;;;1.02;0.82;;;19.20;45.10;;;;;;8362791;28;20112;-52
2023/12/03 17:44:47;;;;;;;0.80;0.80;;;19.20;45.00;;;;;;8363446;28;20029;-53
2023/12/03 17:48:49;;;;;;;1.20;1.00;;;19.20;45.10;;;;;;8363167;28;20757;-54
2023/12/03 17:52:49;;;;;;;;;;;19.20;45.10;;;;;;8362876;28;20064;-53
2023/12/03 17:56:50;;;;;;;1.13;1.00;;;19.20;45.10;;;;;;8362444;28;19911;-52
2023/12/03 18:00:52;;;;;;;1.00;0.90;;;19.20;45.20;;;;;;8360670;28;20040;-52
2023/12/03 18:04:53;;;;;;;1.45;1.23;;;19.10;45.10;;;;;;8361963;28;20045;-53
2023/12/03 18:08:53;;;;;;;1.83;1.67;;;19.10;45.10;;;;;;8362110;28;20086;-54
2023/12/03 18:12:54;;;;;;;1.40;1.30;;;19.10;45.10;;;;;;8361502;28;20086;-54
2023/12/03 18:16:56;;;;;;;1.15;1.05;;;19.10;45.30;;;;;;8361826;28;20506;-55
2023/12/03 18:20:57;;;;;;;1.33;1.15;;;19.20;45.20;;;;;;8361922;28;20037;-55
2023/12/03 18:24:57;;;;;;;1.30;1.20;;;19.20;45.20;;;;;;8360052;28;20086;-55
2023/12/03 18:28:58;;;;;;;2.00;1.05;;;19.20;45.20;;;;;;8361460;28;20083;-55
2023/12/03 18:32:59;;;;;;;1.17;1.00;;;19.20;45.10;;;;;;8361018;28;20039;-55
2023/12/03 18:37:00;;;;;;;1.30;0.93;;;19.20;45.10;;;;;;8361104;28;20090;-53
2023/12/03 18:41:01;;;;;;;;;;;19.20;45.10;;;;;;8361480;28;20044;-54
2023/12/03 18:45:03;;;;;;;1.20;1.10;;;19.20;45.00;;;;;;8359514;28;19999;-54
2023/12/03 18:49:03;;;;;;;1.30;1.20;;;19.20;45.00;;;;;;8360741;28;20029;-54
2023/12/03 18:53:04;;;;;;;1.42;1.33;;;19.20;44.90;;;;;;8360362;28;20029;-55
2023/12/03 18:57:06;;;;;;;1.38;1.27;;;19.20;44.90;;;;;;8360248;28;20343;-55
2023/12/03 19:01:08;;;;;;;1.27;0.90;;;19.20;44.90;;;;;;8360534;28;20037;-54
2023/12/03 19:05:09;;;;;;;1.20;1.10;;;19.30;44.90;;;;;;8360412;28;20060;-55
2023/12/03 19:09:09;;;;;;;1.30;1.08;;;19.20;44.90;;;;;;8360011;28;20040;-54
2023/12/03 19:13:10;;;;;;;0.88;0.85;;;19.20;44.90;;;;;;8360260;28;20031;-54
2023/12/03 19:17:11;;;;;;;1.52;1.30;;;19.20;45.10;;;;;;8360263;28;20510;-51
2023/12/03 19:21:12;;;;;;;;;;;19.20;45.00;;;;;;8360204;28;20064;-48
2023/12/03 19:25:13;;;;;;;1.58;1.17;;;19.20;45.00;;;;;;8360082;28;20011;-49
2023/12/03 19:29:14;;;;;;;1.40;1.30;;;19.20;45.00;;;;;;8359764;28;20083;-50
2023/12/03 19:33:16;;;;;;;1.23;1.05;;;19.20;45.00;;;;;;8358466;28;20037;-51
2023/12/03 19:37:16;;;;;;;1.02;0.93;;;19.20;45.10;;;;;;8359520;28;20102;-49
2023/12/03 19:41:17;;;;;;;1.88;1.20;;;19.10;45.00;;;;;;8359417;28;20040;-49
2023/12/03 19:45:18;;;;;;;1.35;1.10;;;19.10;45.10;;;;;;8359738;28;20029;-51
2023/12/03 19:49:19;;;;;;;1.48;1.08;;;19.10;45.10;;;;;;8358652;28;20061;-50
2023/12/03 19:53:21;;;;;;;1.83;1.20;;;19.10;45.10;;;;;;8359106;28;20025;-50
2023/12/03 19:57:22;;;;;;;1.33;1.20;;;19.10;45.00;;;;;;8358600;28;20061;-49
2023/12/03 20:01:22;;;;;;;1.20;1.10;;;19.10;44.90;;;;;;8361670;28;20047;-51
2023/12/03 20:05:23;;;;;;;1.40;1.08;;;19.20;44.90;;;;;;8365492;28;20103;-51
2023/12/03 20:09:25;;;;;;;2.47;1.35;;;19.20;44.90;;;;;;8365725;28;20140;-49
2023/12/03 20:13:33;;;;;;;2.22;1.48;;;19.20;44.80;;;;;;8366170;28;20051;-50
2023/12/03 20:17:34;;;;;;;1.40;1.30;;;19.20;45.00;;;;;;8365554;28;20033;-48
2023/12/03 20:21:37;;;;;;;1.25;1.15;;;19.20;44.90;;;;;;8365175;28;20072;-49
2023/12/03 20:25:38;;;;;;;1.38;1.17;;;19.20;44.90;;;;;;8365647;28;20029;-49
2023/12/03 20:29:38;;;;;;;1.40;1.25;;;19.20;44.90;;;;;;8365288;28;20037;-49
2023/12/03 20:33:39;;;;;;;1.42;1.00;;;19.20;44.90;;;;;;8364961;28;20458;-50
2023/12/03 20:37:40;;;;;;;1.48;1.20;;;19.20;44.80;;;;;;8364656;28;20039;-48
2023/12/03 20:41:40;;;;;;;1.88;1.38;;;19.20;44.80;;;;;;8364647;28;20436;-49
2023/12/03 20:45:41;;;;;;;2.42;1.42;;;19.30;44.80;;;;;;8364714;28;20475;-50
2023/12/03 20:49:42;;;;;;;1.52;1.13;;;19.20;44.80;;;;;;8364615;28;20041;-48
2023/12/03 20:53:43;;;;;;;1.27;1.08;;;19.30;44.80;;;;;;8363091;28;20033;-48
2023/12/03 20:57:43;;;;;;;1.27;1.00;;;19.20;44.80;;;;;;8364067;28;20041;-48
2023/12/03 21:01:44;;;;;;;1.35;1.10;;;19.20;44.80;;;;;;8364235;28;20082;-51